Time;durP1;ratioP1;P1;durP2;ratioP2;P2;SDS_P1;SDS_P2;PMS_P1;PMS_P2;Temp;Humidity;BMP_temperature;BMP_pressure;BME280_temperature;BME280_humidity;BME280_pressure;Samples;Min_cycle;Max_cycle;Signal;HPM_P1;HPM_P2
2022/03/30 00:00:18;;;;;;;;;;;;;;;;;;1031482;28;930;-28
2022/03/30 00:00:48;;;;;;;;;;;;;;;;;;1031336;28;1214;-30
2022/03/30 00:01:19;;;;;;;;;;;;;;;;;;1031488;28;875;-31
2022/03/30 00:01:49;;;;;;;;;;;;;;;;;;1031057;28;815;-26
2022/03/30 00:02:19;;;;;;;;;;;;;;;;;;1030738;28;807;-27
2022/03/30 00:02:50;;;;;;;;;;;;;;;;;;1031239;28;953;-28
2022/03/30 00:03:20;;;;;;;;;;;;;;;;;;1031300;28;906;-26
2022/03/30 00:03:50;;;;;;;;;;;;;;;;;;1031516;28;767;-25
2022/03/30 00:04:21;;;;;;;;;;;;;;;;;;1031380;28;947;-30
2022/03/30 00:04:51;;;;;;;;;;;;;;;;;;1031427;28;819;-30
2022/03/30 00:05:22;;;;;;;;;;;;;;;;;;1031440;28;1016;-28
2022/03/30 00:05:52;;;;;;;;;;;;;;;;;;1031508;28;922;-26
2022/03/30 00:06:23;;;;;;;;;;;;;;;;;;1031406;28;862;-26
2022/03/30 00:06:53;;;;;;;;;;;;;;;;;;1031154;28;811;-28
2022/03/30 00:07:24;;;;;;;;;;;;;;;;;;1031285;28;926;-28
2022/03/30 00:07:55;;;;;;;;;;;;;;;;;;1031432;28;819;-26
2022/03/30 00:08:25;;;;;;;;;;;;;;;;;;1031431;28;921;-27
2022/03/30 00:08:55;;;;;;;;;;;;;;;;;;1031379;28;1001;-30
2022/03/30 00:09:26;;;;;;;;;;;;;;;;;;1031476;28;903;-29
2022/03/30 00:09:56;;;;;;;;;;;;;;;;;;1031307;28;922;-29
2022/03/30 00:10:27;;;;;;;;;;;;;;;;;;1031387;28;1076;-30
2022/03/30 00:10:57;;;;;;;;;;;;;;;;;;1031398;28;795;-26
2022/03/30 00:11:28;;;;;;;;;;;;;;;;;;1031460;28;815;-30
2022/03/30 00:11:58;;;;;;;;;;;;;;;;;;1031144;28;1915;-29
2022/03/30 00:12:29;;;;;;;;;;;;;;;;;;1031454;28;1016;-31
2022/03/30 00:13:00;;;;;;;;;;;;;;;;;;1031439;28;933;-27
2022/03/30 00:13:30;;;;;;;;;;;;;;;;;;1030684;28;1344;-31
2022/03/30 00:14:01;;;;;;;;;;;;;;;;;;1031099;28;1005;-27
2022/03/30 00:14:31;;;;;;;;;;;;;;;;;;1031154;28;815;-27
2022/03/30 00:15:02;;;;;;;;;;;;;;;;;;1031386;28;870;-26
2022/03/30 00:15:32;;;;;;;;;;;;;;;;;;1031395;28;962;-29
2022/03/30 00:16:03;;;;;;;;;;;;;;;;;;1031508;28;838;-30
2022/03/30 00:16:34;;;;;;;;;;;;;;;;;;1031298;28;950;-25
2022/03/30 00:17:04;;;;;;;;;;;;;;;;;;1031352;28;977;-30
2022/03/30 00:17:35;;;;;;;;;;;;;;;;;;1031401;28;857;-25
2022/03/30 00:18:05;;;;;;;;;;;;;;;;;;1031354;28;811;-32
2022/03/30 00:18:36;;;;;;;;;;;;;;;;;;1031350;28;889;-29
2022/03/30 00:19:06;;;;;;;;;;;;;;;;;;1031449;28;951;-27
2022/03/30 00:19:36;;;;;;;;;;;;;;;;;;1031360;28;898;-28
2022/03/30 00:20:07;;;;;;;;;;;;;;;;;;1031604;28;918;-29
2022/03/30 00:20:38;;;;;;;;;;;;;;;;;;1031174;28;891;-28
2022/03/30 00:21:08;;;;;;;;;;;;;;;;;;1031353;28;871;-28
2022/03/30 00:21:39;;;;;;;;;;;;;;;;;;1030837;28;938;-28
2022/03/30 00:22:09;;;;;;;;;;;;;;;;;;1031377;28;818;-29
2022/03/30 00:22:40;;;;;;;;;;;;;;;;;;1031321;28;831;-27
2022/03/30 00:23:11;;;;;;;;;;;;;;;;;;1031194;28;1140;-29
2022/03/30 00:23:41;;;;;;;;;;;;;;;;;;1031328;28;863;-26
2022/03/30 00:24:12;;;;;;;;;;;;;;;;;;1031414;28;830;-27
2022/03/30 00:24:43;;;;;;;;;;;;;;;;;;1031226;28;866;-31
2022/03/30 00:25:14;;;;;;;;;;;;;;;;;;1031434;28;886;-31
2022/03/30 00:25:45;;;;;;;;;;;;;;;;;;1031384;28;898;-28
2022/03/30 00:26:15;;;;;;;;;;;;;;;;;;1031408;28;835;-30
2022/03/30 00:26:45;;;;;;;;;;;;;;;;;;1031397;28;923;-29
2022/03/30 00:27:16;;;;;;;;;;;;;;;;;;1031244;28;815;-29
2022/03/30 00:27:46;;;;;;;;;;;;;;;;;;1031467;28;819;-29
2022/03/30 00:28:17;;;;;;;;;;;;;;;;;;1031371;28;847;-28
2022/03/30 00:28:47;;;;;;;;;;;;;;;;;;1031432;28;986;-28
2022/03/30 00:29:18;;;;;;;;;;;;;;;;;;1030968;28;867;-32
2022/03/30 00:29:48;;;;;;;;;;;;;;;;;;1031385;28;902;-29
2022/03/30 00:30:20;;;;;;;;;;;;;;;;;;1034669;28;1181;-26
2022/03/30 00:30:50;;;;;;;;;;;;;;;;;;1039246;28;847;-32
2022/03/30 00:31:20;;;;;;;;;;;;;;;;;;1039073;28;834;-28
2022/03/30 00:31:51;;;;;;;;;;;;;;;;;;1039076;28;910;-32
2022/03/30 00:32:21;;;;;;;;;;;;;;;;;;1039095;28;1959;-29
2022/03/30 00:32:51;;;;;;;;;;;;;;;;;;1035447;28;768;-30
2022/03/30 00:33:22;;;;;;;;;;;;;;;;;;1035510;28;926;-28
2022/03/30 00:33:52;;;;;;;;;;;;;;;;;;1035366;28;845;-31
2022/03/30 00:34:23;;;;;;;;;;;;;;;;;;1035417;28;688;-28
2022/03/30 00:34:53;;;;;;;;;;;;;;;;;;1035428;28;882;-31
2022/03/30 00:35:23;;;;;;;;;;;;;;;;;;1035467;28;791;-30
2022/03/30 00:35:54;;;;;;;;;;;;;;;;;;1035405;28;736;-26
2022/03/30 00:36:24;;;;;;;;;;;;;;;;;;1035028;28;922;-29
2022/03/30 00:36:55;;;;;;;;;;;;;;;;;;1035360;28;1180;-29
2022/03/30 00:37:25;;;;;;;;;;;;;;;;;;1035527;28;1032;-31
2022/03/30 00:37:55;;;;;;;;;;;;;;;;;;1035193;28;1000;-30
2022/03/30 00:38:26;;;;;;;;;;;;;;;;;;1035503;28;875;-32
2022/03/30 00:38:56;;;;;;;;;;;;;;;;;;1035329;28;827;-30
2022/03/30 00:39:26;;;;;;;;;;;;;;;;;;1035521;28;819;-31
2022/03/30 00:39:57;;;;;;;;;;;;;;;;;;1035354;28;879;-28
2022/03/30 00:40:27;;;;;;;;;;;;;;;;;;1035385;28;790;-31
2022/03/30 00:40:58;;;;;;;;;;;;;;;;;;1035370;28;958;-29
2022/03/30 00:41:28;;;;;;;;;;;;;;;;;;1035563;28;874;-29
2022/03/30 00:41:58;;;;;;;;;;;;;;;;;;1035095;28;914;-26
2022/03/30 00:42:29;;;;;;;;;;;;;;;;;;1035549;28;978;-29
2022/03/30 00:42:59;;;;;;;;;;;;;;;;;;1035252;28;1036;-31
2022/03/30 00:43:30;;;;;;;;;;;;;;;;;;1035617;28;886;-30
2022/03/30 00:44:07;;;;;;;;;;;;;;;;;;1034882;28;886;-27
2022/03/30 00:44:38;;;;;;;;;;;;;;;;;;1035260;28;1008;-30
2022/03/30 00:45:10;;;;;;;;;;;;;;;;;;1035493;28;867;-28
2022/03/30 00:45:41;;;;;;;;;;;;;;;;;;1035381;28;882;-26
2022/03/30 00:46:12;;;;;;;;;;;;;;;;;;1035359;28;788;-30
2022/03/30 00:46:43;;;;;;;;;;;;;;;;;;1035455;28;870;-31
2022/03/30 00:47:14;;;;;;;;;;;;;;;;;;1035450;28;858;-29
2022/03/30 00:47:44;;;;;;;;;;;;;;;;;;1035389;28;771;-29
2022/03/30 00:48:15;;;;;;;;;;;;;;;;;;1035438;28;815;-26
2022/03/30 00:48:45;;;;;;;;;;;;;;;;;;1035359;28;1605;-27
2022/03/30 00:49:15;;;;;;;;;;;;;;;;;;1035425;28;929;-30
2022/03/30 00:49:46;;;;;;;;;;;;;;;;;;1035394;28;839;-28
2022/03/30 00:50:18;;;;;;;;;;;;;;;;;;1035365;28;893;-27
2022/03/30 00:50:48;;;;;;;;;;;;;;;;;;1035437;28;882;-28
2022/03/30 00:51:18;;;;;;;;;;;;;;;;;;1035000;28;858;-31
2022/03/30 00:51:49;;;;;;;;;;;;;;;;;;1035411;28;818;-30
2022/03/30 00:52:20;;;;;;;;;;;;;;;;;;1035278;28;1969;-30
2022/03/30 00:52:53;;;;;;;;;;;;;;;;;;1035352;28;972;-31
2022/03/30 00:53:24;;;;;;;;;;;;;;;;;;1035375;28;942;-29
2022/03/30 00:53:54;;;;;;;;;;;;;;;;;;1035348;28;1120;-31
2022/03/30 00:54:24;;;;;;;;;;;;;;;;;;1035499;28;898;-27
2022/03/30 00:54:57;;;;;;;;;;;;;;;;;;1035291;28;887;-29
2022/03/30 00:55:27;;;;;;;;;;;;;;;;;;1035463;28;945;-28
2022/03/30 00:55:57;;;;;;;;;;;;;;;;;;1035398;28;917;-28
2022/03/30 00:56:29;;;;;;;;;;;;;;;;;;1035395;28;865;-27
2022/03/30 00:57:00;;;;;;;;;;;;;;;;;;1035411;28;961;-29
2022/03/30 00:57:32;;;;;;;;;;;;;;;;;;1035484;28;806;-30
2022/03/30 00:58:03;;;;;;;;;;;;;;;;;;1035330;28;957;-30
2022/03/30 00:58:33;;;;;;;;;;;;;;;;;;1035162;28;802;-28
2022/03/30 00:59:07;;;;;;;;;;;;;;;;;;1035259;28;993;-29
2022/03/30 00:59:39;;;;;;;;;;;;;;;;;;1035474;28;759;-26
2022/03/30 01:00:14;;;;;;;;;;;;;;;;;;1035320;28;925;-27
2022/03/30 01:00:44;;;;;;;;;;;;;;;;;;1039120;28;1390;-28
2022/03/30 01:01:15;;;;;;;;;;;;;;;;;;1039037;28;926;-27
2022/03/30 01:01:45;;;;;;;;;;;;;;;;;;1038987;28;949;-29
2022/03/30 01:02:16;;;;;;;;;;;;;;;;;;1039111;28;803;-27
2022/03/30 01:02:47;;;;;;;;;;;;;;;;;;1035516;28;882;-30
2022/03/30 01:03:18;;;;;;;;;;;;;;;;;;1035267;28;834;-26
2022/03/30 01:03:48;;;;;;;;;;;;;;;;;;1035445;28;882;-29
2022/03/30 01:04:19;;;;;;;;;;;;;;;;;;1035346;28;985;-31
2022/03/30 01:04:50;;;;;;;;;;;;;;;;;;1035389;28;992;-27
2022/03/30 01:05:20;;;;;;;;;;;;;;;;;;1035370;28;807;-28
2022/03/30 01:05:50;;;;;;;;;;;;;;;;;;1035177;28;985;-28
2022/03/30 01:06:21;;;;;;;;;;;;;;;;;;1035155;28;820;-28
2022/03/30 01:06:51;;;;;;;;;;;;;;;;;;1035322;28;942;-30
2022/03/30 01:07:21;;;;;;;;;;;;;;;;;;1035339;28;824;-26
2022/03/30 01:07:56;;;;;;;;;;;;;;;;;;1035407;28;865;-29
2022/03/30 01:08:27;;;;;;;;;;;;;;;;;;1035382;28;878;-27
2022/03/30 01:08:57;;;;;;;;;;;;;;;;;;1035487;28;865;-27
2022/03/30 01:09:28;;;;;;;;;;;;;;;;;;1035236;28;841;-35
2022/03/30 01:09:59;;;;;;;;;;;;;;;;;;1035472;28;803;-25
2022/03/30 01:10:30;;;;;;;;;;;;;;;;;;1035322;28;801;-29
2022/03/30 01:11:00;;;;;;;;;;;;;;;;;;1035349;28;835;-28
2022/03/30 01:11:31;;;;;;;;;;;;;;;;;;1035252;28;783;-27
2022/03/30 01:12:01;;;;;;;;;;;;;;;;;;1035293;28;1973;-26
2022/03/30 01:12:32;;;;;;;;;;;;;;;;;;1035223;28;909;-28
2022/03/30 01:13:03;;;;;;;;;;;;;;;;;;1035353;28;972;-28
2022/03/30 01:13:34;;;;;;;;;;;;;;;;;;1035065;28;956;-29
2022/03/30 01:14:04;;;;;;;;;;;;;;;;;;1035069;28;1121;-30
2022/03/30 01:14:35;;;;;;;;;;;;;;;;;;1031999;28;850;-30
2022/03/30 01:15:07;;;;;;;;;;;;;;;;;;1032151;28;824;-29
2022/03/30 01:15:37;;;;;;;;;;;;;;;;;;1031980;28;937;-29
2022/03/30 01:16:08;;;;;;;;;;;;;;;;;;1032047;28;815;-28
2022/03/30 01:16:39;;;;;;;;;;;;;;;;;;1032138;28;800;-26
2022/03/30 01:17:09;;;;;;;;;;;;;;;;;;1032069;28;791;-30
2022/03/30 01:17:40;;;;;;;;;;;;;;;;;;1032010;28;883;-27
2022/03/30 01:18:11;;;;;;;;;;;;;;;;;;1031992;28;887;-29
2022/03/30 01:18:42;;;;;;;;;;;;;;;;;;1031571;28;1040;-26
2022/03/30 01:19:13;;;;;;;;;;;;;;;;;;1034816;28;1007;-28
2022/03/30 01:19:43;;;;;;;;;;;;;;;;;;1036202;28;850;-29
2022/03/30 01:20:16;;;;;;;;;;;;;;;;;;1032120;28;1143;-27
2022/03/30 01:20:47;;;;;;;;;;;;;;;;;;1031705;28;1028;-29
2022/03/30 01:21:18;;;;;;;;;;;;;;;;;;1032034;28;942;-26
2022/03/30 01:21:48;;;;;;;;;;;;;;;;;;1031411;28;937;-29
2022/03/30 01:22:18;;;;;;;;;;;;;;;;;;1032154;28;818;-28
2022/03/30 01:22:49;;;;;;;;;;;;;;;;;;1031914;28;866;-27
2022/03/30 01:23:20;;;;;;;;;;;;;;;;;;1031267;28;1301;-29
2022/03/30 01:23:51;;;;;;;;;;;;;;;;;;1032061;28;806;-32
2022/03/30 01:24:21;;;;;;;;;;;;;;;;;;1031651;28;1159;-27
2022/03/30 01:24:51;;;;;;;;;;;;;;;;;;1032000;28;941;-30
2022/03/30 01:25:22;;;;;;;;;;;;;;;;;;1032110;28;921;-29
2022/03/30 01:25:52;;;;;;;;;;;;;;;;;;1031962;28;850;-29
2022/03/30 01:26:25;;;;;;;;;;;;;;;;;;1031991;28;823;-29
2022/03/30 01:26:55;;;;;;;;;;;;;;;;;;1031947;28;846;-33
2022/03/30 01:27:25;;;;;;;;;;;;;;;;;;1032103;28;957;-28
2022/03/30 01:27:57;;;;;;;;;;;;;;;;;;1031969;28;807;-28
2022/03/30 01:28:28;;;;;;;;;;;;;;;;;;1031345;28;898;-30
2022/03/30 01:28:58;;;;;;;;;;;;;;;;;;1031724;28;1244;-30
2022/03/30 01:32:45;;;;;;;;;;;;;;;;;;1036158;28;861;-28
2022/03/30 01:33:16;;;;;;;;;;;;;;;;;;1035859;28;926;-30
2022/03/30 01:33:47;;;;;;;;;;;;;;;;;;1036051;28;953;-29
2022/03/30 01:34:18;;;;;;;;;;;;;;;;;;1036029;28;992;-30
2022/03/30 01:34:48;;;;;;;;;;;;;;;;;;1035949;28;937;-30
2022/03/30 01:35:18;;;;;;;;;;;;;;;;;;1036178;28;862;-29
2022/03/30 01:35:49;;;;;;;;;;;;;;;;;;1035666;28;885;-29
2022/03/30 01:36:19;;;;;;;;;;;;;;;;;;1035954;28;1008;-27
2022/03/30 01:36:49;;;;;;;;;;;;;;;;;;1035944;28;882;-30
2022/03/30 01:37:20;;;;;;;;;;;;;;;;;;1035993;28;937;-27
2022/03/30 01:37:50;;;;;;;;;;;;;;;;;;1036010;28;775;-31
2022/03/30 01:38:21;;;;;;;;;;;;;;;;;;1036128;28;913;-32
2022/03/30 01:38:51;;;;;;;;;;;;;;;;;;1035777;28;1000;-27
2022/03/30 01:39:21;;;;;;;;;;;;;;;;;;1036150;28;937;-29
2022/03/30 01:39:52;;;;;;;;;;;;;;;;;;1035966;28;1105;-29
2022/03/30 01:40:22;;;;;;;;;;;;;;;;;;1036053;28;846;-32
2022/03/30 01:40:53;;;;;;;;;;;;;;;;;;1036028;28;890;-29
2022/03/30 01:41:23;;;;;;;;;;;;;;;;;;1035953;28;843;-29
2022/03/30 01:41:53;;;;;;;;;;;;;;;;;;1039602;28;973;-31
2022/03/30 01:42:25;;;;;;;;;;;;;;;;;;1039853;28;881;-25
2022/03/30 01:42:55;;;;;;;;;;;;;;;;;;1039268;28;890;-27
2022/03/30 01:43:28;;;;;;;;;;;;;;;;;;1039731;28;870;-26
2022/03/30 01:43:58;;;;;;;;;;;;;;;;;;1035946;28;984;-26
2022/03/30 01:44:28;;;;;;;;;;;;;;;;;;1035986;28;854;-29
2022/03/30 01:44:59;;;;;;;;;;;;;;;;;;1036105;28;819;-25
2022/03/30 01:45:29;;;;;;;;;;;;;;;;;;1035853;28;981;-32
2022/03/30 01:46:00;;;;;;;;;;;;;;;;;;1035986;28;989;-28
2022/03/30 01:46:30;;;;;;;;;;;;;;;;;;1035929;28;945;-28
2022/03/30 01:47:00;;;;;;;;;;;;;;;;;;1035998;28;827;-30
2022/03/30 01:47:31;;;;;;;;;;;;;;;;;;1036002;28;874;-29
2022/03/30 01:48:01;;;;;;;;;;;;;;;;;;1035968;28;887;-28
2022/03/30 01:48:32;;;;;;;;;;;;;;;;;;1035945;28;870;-28
2022/03/30 01:49:02;;;;;;;;;;;;;;;;;;1036141;28;902;-31
2022/03/30 01:49:32;;;;;;;;;;;;;;;;;;1035844;28;866;-29
2022/03/30 01:50:03;;;;;;;;;;;;;;;;;;1036143;28;825;-26
2022/03/30 01:50:33;;;;;;;;;;;;;;;;;;1035523;28;858;-27
2022/03/30 01:51:03;;;;;;;;;;;;;;;;;;1036044;28;870;-28
2022/03/30 01:51:34;;;;;;;;;;;;;;;;;;1035823;28;927;-26
2022/03/30 01:52:04;;;;;;;;;;;;;;;;;;1035892;28;1972;-31
2022/03/30 01:52:35;;;;;;;;;;;;;;;;;;1035938;28;827;-30
2022/03/30 01:53:06;;;;;;;;;;;;;;;;;;1036047;28;902;-28
2022/03/30 01:53:36;;;;;;;;;;;;;;;;;;1035738;28;982;-31
2022/03/30 01:54:06;;;;;;;;;;;;;;;;;;1036020;28;875;-30
2022/03/30 01:54:38;;;;;;;;;;;;;;;;;;1035908;28;938;-29
2022/03/30 01:55:08;;;;;;;;;;;;;;;;;;1036004;28;796;-29
2022/03/30 01:55:38;;;;;;;;;;;;;;;;;;1035948;28;779;-27
2022/03/30 01:56:09;;;;;;;;;;;;;;;;;;1035827;28;842;-28
2022/03/30 01:56:39;;;;;;;;;;;;;;;;;;1035994;28;834;-26
2022/03/30 01:57:13;;;;;;;;;;;;;;;;;;1035939;28;782;-26
2022/03/30 01:57:43;;;;;;;;;;;;;;;;;;1035629;28;814;-26
2022/03/30 01:58:13;;;;;;;;;;;;;;;;;;1035906;28;933;-26
2022/03/30 01:58:44;;;;;;;;;;;;;;;;;;1035895;28;827;-29
2022/03/30 01:59:14;;;;;;;;;;;;;;;;;;1036031;28;949;-27
2022/03/30 01:59:45;;;;;;;;;;;;;;;;;;1035853;28;859;-29
2022/03/30 02:00:17;;;;;;;;;;;;;;;;;;1035844;28;1020;-28
2022/03/30 02:00:47;;;;;;;;;;;;;;;;;;1035919;28;850;-27
2022/03/30 02:01:18;;;;;;;;;;;;;;;;;;1036002;28;878;-28
2022/03/30 02:01:48;;;;;;;;;;;;;;;;;;1035563;28;1013;-31
2022/03/30 02:02:18;;;;;;;;;;;;;;;;;;1036119;28;870;-32
2022/03/30 02:02:49;;;;;;;;;;;;;;;;;;1035724;28;972;-29
2022/03/30 02:03:19;;;;;;;;;;;;;;;;;;1035966;28;887;-29
2022/03/30 02:03:49;;;;;;;;;;;;;;;;;;1035742;28;1024;-28
2022/03/30 02:04:20;;;;;;;;;;;;;;;;;;1036006;28;893;-32
2022/03/30 02:04:50;;;;;;;;;;;;;;;;;;1031431;28;1593;-30
2022/03/30 02:05:20;;;;;;;;;;;;;;;;;;1031227;28;934;-30
2022/03/30 02:05:52;;;;;;;;;;;;;;;;;;1031469;28;993;-26
2022/03/30 02:06:24;;;;;;;;;;;;;;;;;;1031901;28;855;-26
2022/03/30 02:06:54;;;;;;;;;;;;;;;;;;1035854;28;993;-27
2022/03/30 02:07:25;;;;;;;;;;;;;;;;;;1036026;28;831;-25
2022/03/30 02:07:55;;;;;;;;;;;;;;;;;;1035698;28;949;-29
2022/03/30 02:08:26;;;;;;;;;;;;;;;;;;1035917;28;1727;-28
2022/03/30 02:08:56;;;;;;;;;;;;;;;;;;1035922;28;878;-26
2022/03/30 02:09:27;;;;;;;;;;;;;;;;;;1035922;28;858;-26
2022/03/30 02:09:57;;;;;;;;;;;;;;;;;;1035944;28;969;-30
2022/03/30 02:10:28;;;;;;;;;;;;;;;;;;1035811;28;862;-25
2022/03/30 02:10:58;;;;;;;;;;;;;;;;;;1035948;28;962;-27
2022/03/30 02:11:29;;;;;;;;;;;;;;;;;;1035917;28;877;-27
2022/03/30 02:12:00;;;;;;;;;;;;;;;;;;1035710;28;997;-31
2022/03/30 02:12:31;;;;;;;;;;;;;;;;;;1035432;28;906;-28
2022/03/30 02:13:01;;;;;;;;;;;;;;;;;;1035894;28;929;-25
2022/03/30 02:13:32;;;;;;;;;;;;;;;;;;1035724;28;831;-30
2022/03/30 02:14:02;;;;;;;;;;;;;;;;;;1035025;28;1102;-28
2022/03/30 02:14:33;;;;;;;;;;;;;;;;;;1031634;28;926;-29
2022/03/30 02:15:05;;;;;;;;;;;;;;;;;;1031963;28;855;-30
2022/03/30 02:15:35;;;;;;;;;;;;;;;;;;1031748;28;791;-29
2022/03/30 02:16:05;;;;;;;;;;;;;;;;;;1031905;28;938;-28
2022/03/30 02:16:36;;;;;;;;;;;;;;;;;;1031656;28;791;-29
2022/03/30 02:17:06;;;;;;;;;;;;;;;;;;1031916;28;835;-28
2022/03/30 02:17:37;;;;;;;;;;;;;;;;;;1031800;28;799;-32
2022/03/30 02:18:07;;;;;;;;;;;;;;;;;;1031865;28;886;-28
2022/03/30 02:18:38;;;;;;;;;;;;;;;;;;1031667;28;886;-29
2022/03/30 02:19:10;;;;;;;;;;;;;;;;;;1031899;28;942;-28
2022/03/30 02:19:40;;;;;;;;;;;;;;;;;;1031770;28;846;-27
2022/03/30 02:20:14;;;;;;;;;;;;;;;;;;1031429;28;958;-25
2022/03/30 02:20:44;;;;;;;;;;;;;;;;;;1031605;28;942;-27
2022/03/30 02:21:17;;;;;;;;;;;;;;;;;;1031742;28;890;-28
2022/03/30 02:21:48;;;;;;;;;;;;;;;;;;1031651;28;910;-27
2022/03/30 02:22:18;;;;;;;;;;;;;;;;;;1031901;28;886;-28
2022/03/30 02:22:48;;;;;;;;;;;;;;;;;;1031622;28;811;-25
2022/03/30 02:23:19;;;;;;;;;;;;;;;;;;1029640;28;1176;-29
2022/03/30 02:23:50;;;;;;;;;;;;;;;;;;1031388;28;1100;-35
2022/03/30 02:24:20;;;;;;;;;;;;;;;;;;1031769;28;867;-28
2022/03/30 02:24:51;;;;;;;;;;;;;;;;;;1031454;28;879;-26
2022/03/30 02:25:22;;;;;;;;;;;;;;;;;;1031263;28;907;-28
2022/03/30 02:25:53;;;;;;;;;;;;;;;;;;1031705;28;795;-28
2022/03/30 02:26:24;;;;;;;;;;;;;;;;;;1031793;28;895;-27
2022/03/30 02:26:54;;;;;;;;;;;;;;;;;;1031595;28;863;-29
2022/03/30 02:27:25;;;;;;;;;;;;;;;;;;1031505;28;862;-28
2022/03/30 02:27:55;;;;;;;;;;;;;;;;;;1031594;28;930;-28
2022/03/30 02:28:25;;;;;;;;;;;;;;;;;;1031919;28;934;-31
2022/03/30 02:28:56;;;;;;;;;;;;;;;;;;1031744;28;814;-26
2022/03/30 02:29:26;;;;;;;;;;;;;;;;;;1031765;28;891;-26
2022/03/30 02:29:56;;;;;;;;;;;;;;;;;;1031917;28;1130;-31
2022/03/30 02:30:27;;;;;;;;;;;;;;;;;;1035728;28;887;-26
2022/03/30 02:30:58;;;;;;;;;;;;;;;;;;1035887;28;898;-38
2022/03/30 02:31:28;;;;;;;;;;;;;;;;;;1035880;28;842;-26
2022/03/30 02:32:00;;;;;;;;;;;;;;;;;;1035704;28;854;-27
2022/03/30 02:32:31;;;;;;;;;;;;;;;;;;1035823;28;835;-27
2022/03/30 02:33:01;;;;;;;;;;;;;;;;;;1035715;28;859;-27
2022/03/30 02:33:32;;;;;;;;;;;;;;;;;;1035862;28;807;-25
2022/03/30 02:34:02;;;;;;;;;;;;;;;;;;1035824;28;933;-27
2022/03/30 02:34:32;;;;;;;;;;;;;;;;;;1035767;28;814;-25
2022/03/30 02:35:04;;;;;;;;;;;;;;;;;;1035443;28;953;-26
2022/03/30 02:35:34;;;;;;;;;;;;;;;;;;1035737;28;926;-24
2022/03/30 02:36:05;;;;;;;;;;;;;;;;;;1035779;28;824;-27
2022/03/30 02:36:35;;;;;;;;;;;;;;;;;;1035874;28;902;-27
2022/03/30 02:37:06;;;;;;;;;;;;;;;;;;1035637;28;965;-27
2022/03/30 02:37:36;;;;;;;;;;;;;;;;;;1035775;28;895;-29
2022/03/30 02:38:06;;;;;;;;;;;;;;;;;;1035723;28;899;-27
2022/03/30 02:38:37;;;;;;;;;;;;;;;;;;1035837;28;858;-27
2022/03/30 02:39:07;;;;;;;;;;;;;;;;;;1035740;28;823;-27
2022/03/30 02:39:38;;;;;;;;;;;;;;;;;;1035760;28;898;-30
2022/03/30 02:40:08;;;;;;;;;;;;;;;;;;1035704;28;950;-26
2022/03/30 02:40:39;;;;;;;;;;;;;;;;;;1035709;28;890;-29
2022/03/30 02:41:10;;;;;;;;;;;;;;;;;;1035648;28;834;-27
2022/03/30 02:41:40;;;;;;;;;;;;;;;;;;1035573;28;950;-30
2022/03/30 02:42:11;;;;;;;;;;;;;;;;;;1035408;28;859;-28
2022/03/30 02:42:42;;;;;;;;;;;;;;;;;;1035844;28;783;-29
2022/03/30 02:43:16;;;;;;;;;;;;;;;;;;1035749;28;909;-31
2022/03/30 02:43:46;;;;;;;;;;;;;;;;;;1035565;28;891;-29
2022/03/30 02:44:17;;;;;;;;;;;;;;;;;;1035778;28;982;-31
2022/03/30 02:44:47;;;;;;;;;;;;;;;;;;1035607;28;903;-27
2022/03/30 02:45:18;;;;;;;;;;;;;;;;;;1035800;28;894;-27
2022/03/30 02:45:48;;;;;;;;;;;;;;;;;;1035617;28;906;-25
2022/03/30 02:46:19;;;;;;;;;;;;;;;;;;1035735;28;985;-27
2022/03/30 02:46:49;;;;;;;;;;;;;;;;;;1035767;28;847;-31
2022/03/30 02:48:17;;;;;;;;;;;;;;;;;;1035821;28;954;-25
2022/03/30 02:48:19;;;;;;;;;;;;;;;;;;1035615;28;1099;-26
2022/03/30 02:48:49;;;;;;;;;;;;;;;;;;1035637;28;961;-30
2022/03/30 02:49:20;;;;;;;;;;;;;;;;;;1035837;28;909;-27
2022/03/30 02:49:50;;;;;;;;;;;;;;;;;;1035366;28;843;-28
2022/03/30 02:50:21;;;;;;;;;;;;;;;;;;1035666;28;826;-28
2022/03/30 02:50:51;;;;;;;;;;;;;;;;;;1035663;28;1052;-29
2022/03/30 02:51:22;;;;;;;;;;;;;;;;;;1035806;28;976;-30
2022/03/30 02:51:52;;;;;;;;;;;;;;;;;;1035533;28;803;-28
2022/03/30 02:52:23;;;;;;;;;;;;;;;;;;1035727;28;1906;-28
2022/03/30 02:52:53;;;;;;;;;;;;;;;;;;1035611;28;882;-26
2022/03/30 02:53:24;;;;;;;;;;;;;;;;;;1035846;28;890;-28
2022/03/30 02:53:54;;;;;;;;;;;;;;;;;;1035582;28;847;-31
2022/03/30 02:54:25;;;;;;;;;;;;;;;;;;1035691;28;898;-27
2022/03/30 02:54:56;;;;;;;;;;;;;;;;;;1035647;28;817;-27
2022/03/30 02:55:26;;;;;;;;;;;;;;;;;;1035676;28;996;-26
2022/03/30 02:55:57;;;;;;;;;;;;;;;;;;1035815;28;894;-27
2022/03/30 02:56:27;;;;;;;;;;;;;;;;;;1035663;28;945;-28
2022/03/30 02:56:58;;;;;;;;;;;;;;;;;;1035346;28;827;-29
2022/03/30 02:57:29;;;;;;;;;;;;;;;;;;1035793;28;831;-27
2022/03/30 02:57:59;;;;;;;;;;;;;;;;;;1035673;28;890;-26
2022/03/30 02:58:30;;;;;;;;;;;;;;;;;;1035600;28;941;-29
2022/03/30 02:59:01;;;;;;;;;;;;;;;;;;1035772;28;870;-26
2022/03/30 02:59:31;;;;;;;;;;;;;;;;;;1035560;28;924;-30
2022/03/30 03:00:04;;;;;;;;;;;;;;;;;;1035733;28;1387;-29
2022/03/30 03:00:35;;;;;;;;;;;;;;;;;;1035541;28;1300;-28
2022/03/30 03:01:06;;;;;;;;;;;;;;;;;;1035674;28;882;-29
2022/03/30 03:01:36;;;;;;;;;;;;;;;;;;1035784;28;910;-27
2022/03/30 03:02:07;;;;;;;;;;;;;;;;;;1035524;28;874;-30
2022/03/30 03:02:37;;;;;;;;;;;;;;;;;;1035695;28;1004;-26
2022/03/30 03:03:08;;;;;;;;;;;;;;;;;;1035684;28;829;-25
2022/03/30 03:03:38;;;;;;;;;;;;;;;;;;1035610;28;913;-25
2022/03/30 03:04:08;;;;;;;;;;;;;;;;;;1035728;28;902;-31
2022/03/30 03:04:39;;;;;;;;;;;;;;;;;;1035276;28;933;-24
2022/03/30 03:05:10;;;;;;;;;;;;;;;;;;1035632;28;921;-28
2022/03/30 03:05:42;;;;;;;;;;;;;;;;;;1035811;28;1419;-30
2022/03/30 03:06:12;;;;;;;;;;;;;;;;;;1035556;28;946;-27
2022/03/30 03:06:43;;;;;;;;;;;;;;;;;;1035738;28;934;-29
2022/03/30 03:07:14;;;;;;;;;;;;;;;;;;1035614;28;1032;-26
2022/03/30 03:07:44;;;;;;;;;;;;;;;;;;1031304;28;1430;-28
2022/03/30 03:08:15;;;;;;;;;;;;;;;;;;1031180;28;938;-25
2022/03/30 03:08:45;;;;;;;;;;;;;;;;;;1031350;28;897;-25
2022/03/30 03:09:15;;;;;;;;;;;;;;;;;;1031072;28;989;-29
2022/03/30 03:09:46;;;;;;;;;;;;;;;;;;1035718;28;981;-27
2022/03/30 03:10:16;;;;;;;;;;;;;;;;;;1035612;28;922;-30
2022/03/30 03:10:47;;;;;;;;;;;;;;;;;;1035788;28;822;-27
2022/03/30 03:11:17;;;;;;;;;;;;;;;;;;1035528;28;937;-29
2022/03/30 03:11:48;;;;;;;;;;;;;;;;;;1035124;28;985;-28
2022/03/30 03:12:18;;;;;;;;;;;;;;;;;;1035599;28;1984;-28
2022/03/30 03:12:48;;;;;;;;;;;;;;;;;;1035588;28;831;-30
2022/03/30 03:13:19;;;;;;;;;;;;;;;;;;1035624;28;902;-26
2022/03/30 03:13:49;;;;;;;;;;;;;;;;;;1035546;28;1040;-25
2022/03/30 03:14:20;;;;;;;;;;;;;;;;;;1032220;28;1078;-29
2022/03/30 03:14:50;;;;;;;;;;;;;;;;;;1031611;28;905;-34
2022/03/30 03:15:22;;;;;;;;;;;;;;;;;;1031379;28;819;-30
2022/03/30 03:15:52;;;;;;;;;;;;;;;;;;1031645;28;933;-31
2022/03/30 03:16:22;;;;;;;;;;;;;;;;;;1031646;28;929;-28
2022/03/30 03:16:52;;;;;;;;;;;;;;;;;;1031559;28;823;-28
2022/03/30 03:17:23;;;;;;;;;;;;;;;;;;1031616;28;866;-29
2022/03/30 03:17:53;;;;;;;;;;;;;;;;;;1031568;28;1021;-30
2022/03/30 03:18:23;;;;;;;;;;;;;;;;;;1031625;28;858;-30
2022/03/30 03:18:54;;;;;;;;;;;;;;;;;;1031710;28;886;-30
2022/03/30 03:19:24;;;;;;;;;;;;;;;;;;1031081;28;917;-30
2022/03/30 03:19:54;;;;;;;;;;;;;;;;;;1031578;28;815;-27
2022/03/30 03:20:25;;;;;;;;;;;;;;;;;;1031591;28;961;-29
2022/03/30 03:20:56;;;;;;;;;;;;;;;;;;1031586;28;824;-27
2022/03/30 03:21:26;;;;;;;;;;;;;;;;;;1031668;28;859;-28
2022/03/30 03:21:56;;;;;;;;;;;;;;;;;;1031339;28;795;-31
2022/03/30 03:22:27;;;;;;;;;;;;;;;;;;1031662;28;791;-27
2022/03/30 03:22:58;;;;;;;;;;;;;;;;;;1031554;28;800;-31
2022/03/30 03:23:28;;;;;;;;;;;;;;;;;;1031306;28;1084;-28
2022/03/30 03:23:59;;;;;;;;;;;;;;;;;;1031608;28;1000;-30
2022/03/30 03:24:29;;;;;;;;;;;;;;;;;;1031496;28;1009;-32
2022/03/30 03:25:00;;;;;;;;;;;;;;;;;;1031726;28;807;-30
2022/03/30 03:25:32;;;;;;;;;;;;;;;;;;1031681;28;870;-26
2022/03/30 03:26:03;;;;;;;;;;;;;;;;;;1031456;28;910;-28
2022/03/30 03:26:33;;;;;;;;;;;;;;;;;;1031296;28;787;-28
2022/03/30 03:27:04;;;;;;;;;;;;;;;;;;1031150;28;962;-29
2022/03/30 03:27:34;;;;;;;;;;;;;;;;;;1031261;28;815;-29
2022/03/30 03:28:05;;;;;;;;;;;;;;;;;;1031198;28;878;-30
2022/03/30 03:28:36;;;;;;;;;;;;;;;;;;1031119;28;787;-30
2022/03/30 03:29:06;;;;;;;;;;;;;;;;;;1031030;28;1437;-28
2022/03/30 03:29:37;;;;;;;;;;;;;;;;;;1031514;28;1111;-28
2022/03/30 03:30:08;;;;;;;;;;;;;;;;;;1033135;28;1185;-26
2022/03/30 03:30:38;;;;;;;;;;;;;;;;;;1031670;28;1126;-27
2022/03/30 03:31:08;;;;;;;;;;;;;;;;;;1031453;28;843;-30
2022/03/30 03:31:39;;;;;;;;;;;;;;;;;;1031499;28;874;-27
2022/03/30 03:32:09;;;;;;;;;;;;;;;;;;1031304;28;1922;-27
2022/03/30 03:32:40;;;;;;;;;;;;;;;;;;1031522;28;917;-29
2022/03/30 03:33:10;;;;;;;;;;;;;;;;;;1031543;28;874;-31
2022/03/30 03:33:40;;;;;;;;;;;;;;;;;;1031460;28;783;-30
2022/03/30 03:34:12;;;;;;;;;;;;;;;;;;1031090;28;973;-28
2022/03/30 03:34:42;;;;;;;;;;;;;;;;;;1032522;28;897;-27
2022/03/30 03:35:14;;;;;;;;;;;;;;;;;;1034198;28;846;-28
2022/03/30 03:35:45;;;;;;;;;;;;;;;;;;1035643;28;879;-28
2022/03/30 03:36:18;;;;;;;;;;;;;;;;;;1032921;28;835;-28
2022/03/30 03:36:48;;;;;;;;;;;;;;;;;;1031395;28;796;-29
2022/03/30 03:37:18;;;;;;;;;;;;;;;;;;1031530;28;958;-29
2022/03/30 03:37:49;;;;;;;;;;;;;;;;;;1031406;28;828;-31
2022/03/30 03:38:20;;;;;;;;;;;;;;;;;;1031465;28;859;-28
2022/03/30 03:38:50;;;;;;;;;;;;;;;;;;1031433;28;914;-29
2022/03/30 03:39:20;;;;;;;;;;;;;;;;;;1031552;28;890;-29
2022/03/30 03:39:51;;;;;;;;;;;;;;;;;;1031434;28;890;-31